sensor_id;sensor_type;location;lat;lon;timestamp;temperature;humidity
18733;DHT22;9495;51.210;2.934;2023-06-10T00:00:51;21.40;99.90
18733;DHT22;9495;51.210;2.934;2023-06-10T00:03:20;21.30;99.90
18733;DHT22;9495;51.210;2.934;2023-06-10T00:05:50;21.40;99.90
18733;DHT22;9495;51.210;2.934;2023-06-10T00:08:19;21.30;99.90
18733;DHT22;9495;51.210;2.934;2023-06-10T00:10:48;21.30;99.90
18733;DHT22;9495;51.210;2.934;2023-06-10T00:13:16;21.30;99.90
18733;DHT22;9495;51.210;2.934;2023-06-10T00:15:46;21.30;99.90
18733;DHT22;9495;51.210;2.934;2023-06-10T00:18:14;21.30;99.90
18733;DHT22;9495;51.210;2.934;2023-06-10T00:20:43;21.30;99.90
18733;DHT22;9495;51.210;2.934;2023-06-10T00:23:12;21.30;99.90
18733;DHT22;9495;51.210;2.934;2023-06-10T00:25:41;21.30;99.90
18733;DHT22;9495;51.210;2.934;2023-06-10T00:28:09;21.30;99.90
18733;DHT22;9495;51.210;2.934;2023-06-10T00:30:38;21.30;99.90
18733;DHT22;9495;51.210;2.934;2023-06-10T00:33:08;21.30;99.90
18733;DHT22;9495;51.210;2.934;2023-06-10T00:35:37;21.20;99.90
18733;DHT22;9495;51.210;2.934;2023-06-10T00:38:05;21.20;99.90
18733;DHT22;9495;51.210;2.934;2023-06-10T00:40:39;21.30;99.90
18733;DHT22;9495;51.210;2.934;2023-06-10T00:43:08;21.20;99.90
18733;DHT22;9495;51.210;2.934;2023-06-10T00:45:36;21.20;99.90
18733;DHT22;9495;51.210;2.934;2023-06-10T00:48:05;21.20;99.90
18733;DHT22;9495;51.210;2.934;2023-06-10T00:50:36;21.20;99.90
18733;DHT22;9495;51.210;2.934;2023-06-10T00:53:06;21.20;99.90
18733;DHT22;9495;51.210;2.934;2023-06-10T00:55:36;21.20;99.90
18733;DHT22;9495;51.210;2.934;2023-06-10T00:58:04;21.20;99.90
18733;DHT22;9495;51.210;2.934;2023-06-10T01:00:33;21.20;99.90
18733;DHT22;9495;51.210;2.934;2023-06-10T01:03:02;21.20;99.90
18733;DHT22;9495;51.210;2.934;2023-06-10T01:05:37;21.20;99.90
18733;DHT22;9495;51.210;2.934;2023-06-10T01:08:09;21.20;99.90
18733;DHT22;9495;51.210;2.934;2023-06-10T01:10:50;21.20;99.90
18733;DHT22;9495;51.210;2.934;2023-06-10T01:13:20;21.20;99.90
18733;DHT22;9495;51.210;2.934;2023-06-10T01:15:52;21.10;99.90
18733;DHT22;9495;51.210;2.934;2023-06-10T01:18:20;21.10;99.90
18733;DHT22;9495;51.210;2.934;2023-06-10T01:20:50;21.20;99.90
18733;DHT22;9495;51.210;2.934;2023-06-10T01:23:21;21.20;99.90
18733;DHT22;9495;51.210;2.934;2023-06-10T01:25:53;21.20;99.90
18733;DHT22;9495;51.210;2.934;2023-06-10T01:28:25;21.10;99.90
18733;DHT22;9495;51.210;2.934;2023-06-10T01:30:59;21.10;99.90
18733;DHT22;9495;51.210;2.934;2023-06-10T01:33:32;21.10;99.90
18733;DHT22;9495;51.210;2.934;2023-06-10T01:36:02;21.10;99.90
18733;DHT22;9495;51.210;2.934;2023-06-10T01:38:35;21.00;99.90
18733;DHT22;9495;51.210;2.934;2023-06-10T01:41:05;21.00;99.90
18733;DHT22;9495;51.210;2.934;2023-06-10T01:43:34;21.00;99.90
18733;DHT22;9495;51.210;2.934;2023-06-10T01:46:03;20.90;99.90
18733;DHT22;9495;51.210;2.934;2023-06-10T01:48:31;21.00;99.90
18733;DHT22;9495;51.210;2.934;2023-06-10T01:51:00;21.00;99.90
18733;DHT22;9495;51.210;2.934;2023-06-10T01:53:29;20.90;99.90
18733;DHT22;9495;51.210;2.934;2023-06-10T01:55:59;20.90;99.90
18733;DHT22;9495;51.210;2.934;2023-06-10T01:58:27;20.90;99.90
18733;DHT22;9495;51.210;2.934;2023-06-10T02:00:56;20.90;99.90
18733;DHT22;9495;51.210;2.934;2023-06-10T02:03:24;20.90;99.90
18733;DHT22;9495;51.210;2.934;2023-06-10T02:05:53;20.90;99.90
18733;DHT22;9495;51.210;2.934;2023-06-10T02:08:21;20.90;99.90
18733;DHT22;9495;51.210;2.934;2023-06-10T02:10:50;20.80;99.90
18733;DHT22;9495;51.210;2.934;2023-06-10T02:13:20;20.80;99.90
18733;DHT22;9495;51.210;2.934;2023-06-10T02:15:48;20.80;99.90
18733;DHT22;9495;51.210;2.934;2023-06-10T02:18:17;20.80;99.90
18733;DHT22;9495;51.210;2.934;2023-06-10T02:20:47;20.80;99.90
18733;DHT22;9495;51.210;2.934;2023-06-10T02:23:16;20.80;99.90
18733;DHT22;9495;51.210;2.934;2023-06-10T02:25:45;20.70;99.90
18733;DHT22;9495;51.210;2.934;2023-06-10T02:28:14;20.70;99.90
18733;DHT22;9495;51.210;2.934;2023-06-10T02:30:44;20.70;99.90
18733;DHT22;9495;51.210;2.934;2023-06-10T02:33:14;20.70;99.90
18733;DHT22;9495;51.210;2.934;2023-06-10T02:35:44;20.70;99.90
18733;DHT22;9495;51.210;2.934;2023-06-10T02:38:13;20.70;99.90
18733;DHT22;9495;51.210;2.934;2023-06-10T02:40:41;20.60;99.90
18733;DHT22;9495;51.210;2.934;2023-06-10T02:43:10;20.70;99.90
18733;DHT22;9495;51.210;2.934;2023-06-10T02:45:38;20.70;99.90
18733;DHT22;9495;51.210;2.934;2023-06-10T02:48:08;20.70;99.90
18733;DHT22;9495;51.210;2.934;2023-06-10T02:50:37;20.60;99.90
18733;DHT22;9495;51.210;2.934;2023-06-10T02:53:07;20.70;99.90
18733;DHT22;9495;51.210;2.934;2023-06-10T02:55:35;20.60;99.90
18733;DHT22;9495;51.210;2.934;2023-06-10T02:58:05;20.70;99.90
18733;DHT22;9495;51.210;2.934;2023-06-10T03:00:34;20.70;99.90
18733;DHT22;9495;51.210;2.934;2023-06-10T03:03:03;20.70;99.90
18733;DHT22;9495;51.210;2.934;2023-06-10T03:05:34;20.70;99.90
18733;DHT22;9495;51.210;2.934;2023-06-10T03:08:02;20.70;99.90
18733;DHT22;9495;51.210;2.934;2023-06-10T03:10:30;20.80;99.90
18733;DHT22;9495;51.210;2.934;2023-06-10T03:13:00;20.70;99.90
18733;DHT22;9495;51.210;2.934;2023-06-10T03:15:28;20.70;99.90
18733;DHT22;9495;51.210;2.934;2023-06-10T03:18:00;20.70;99.90
18733;DHT22;9495;51.210;2.934;2023-06-10T03:20:29;20.70;99.90
18733;DHT22;9495;51.210;2.934;2023-06-10T03:22:59;20.70;99.90
18733;DHT22;9495;51.210;2.934;2023-06-10T03:25:27;20.70;99.90
18733;DHT22;9495;51.210;2.934;2023-06-10T03:27:57;20.60;99.90
18733;DHT22;9495;51.210;2.934;2023-06-10T03:30:27;20.70;99.90
18733;DHT22;9495;51.210;2.934;2023-06-10T03:32:55;20.60;99.90
18733;DHT22;9495;51.210;2.934;2023-06-10T03:35:24;20.60;99.90
18733;DHT22;9495;51.210;2.934;2023-06-10T03:37:53;20.50;99.90
18733;DHT22;9495;51.210;2.934;2023-06-10T03:40:22;20.50;99.90
18733;DHT22;9495;51.210;2.934;2023-06-10T03:42:51;20.50;99.90
18733;DHT22;9495;51.210;2.934;2023-06-10T03:45:20;20.50;99.90
18733;DHT22;9495;51.210;2.934;2023-06-10T03:47:49;20.40;99.90
18733;DHT22;9495;51.210;2.934;2023-06-10T03:50:17;20.30;99.90
18733;DHT22;9495;51.210;2.934;2023-06-10T03:52:46;20.30;99.90
18733;DHT22;9495;51.210;2.934;2023-06-10T03:55:15;20.30;99.90
18733;DHT22;9495;51.210;2.934;2023-06-10T03:57:45;20.30;99.90
18733;DHT22;9495;51.210;2.934;2023-06-10T04:00:14;20.20;99.90
18733;DHT22;9495;51.210;2.934;2023-06-10T04:02:43;20.20;99.90
18733;DHT22;9495;51.210;2.934;2023-06-10T04:05:15;20.20;99.90
18733;DHT22;9495;51.210;2.934;2023-06-10T04:07:44;20.20;99.90
18733;DHT22;9495;51.210;2.934;2023-06-10T04:10:13;20.20;99.90
18733;DHT22;9495;51.210;2.934;2023-06-10T04:12:42;20.20;99.90
18733;DHT22;9495;51.210;2.934;2023-06-10T04:15:12;20.20;99.90
18733;DHT22;9495;51.210;2.934;2023-06-10T04:17:40;20.20;99.90
18733;DHT22;9495;51.210;2.934;2023-06-10T04:20:10;20.20;99.90
18733;DHT22;9495;51.210;2.934;2023-06-10T04:22:39;20.20;99.90
18733;DHT22;9495;51.210;2.934;2023-06-10T04:25:09;20.20;99.90
18733;DHT22;9495;51.210;2.934;2023-06-10T04:27:38;20.20;99.90
18733;DHT22;9495;51.210;2.934;2023-06-10T04:30:07;20.20;99.90
18733;DHT22;9495;51.210;2.934;2023-06-10T04:32:37;20.20;99.90
18733;DHT22;9495;51.210;2.934;2023-06-10T04:35:06;20.10;99.90
18733;DHT22;9495;51.210;2.934;2023-06-10T04:37:36;20.20;99.90
18733;DHT22;9495;51.210;2.934;2023-06-10T04:40:05;20.20;99.90
18733;DHT22;9495;51.210;2.934;2023-06-10T04:42:34;20.20;99.90
18733;DHT22;9495;51.210;2.934;2023-06-10T04:45:02;20.20;99.90
18733;DHT22;9495;51.210;2.934;2023-06-10T04:47:31;20.20;99.90
18733;DHT22;9495;51.210;2.934;2023-06-10T04:50:03;20.30;99.90
18733;DHT22;9495;51.210;2.934;2023-06-10T04:52:32;20.30;99.90
18733;DHT22;9495;51.210;2.934;2023-06-10T04:55:01;20.30;99.90
18733;DHT22;9495;51.210;2.934;2023-06-10T04:57:30;20.40;99.90
18733;DHT22;9495;51.210;2.934;2023-06-10T04:59:59;20.40;99.90
18733;DHT22;9495;51.210;2.934;2023-06-10T05:02:27;20.50;99.90
18733;DHT22;9495;51.210;2.934;2023-06-10T05:04:56;20.50;99.90
18733;DHT22;9495;51.210;2.934;2023-06-10T05:07:26;20.40;99.90
18733;DHT22;9495;51.210;2.934;2023-06-10T05:09:54;20.50;99.90
18733;DHT22;9495;51.210;2.934;2023-06-10T05:12:23;20.60;99.90
18733;DHT22;9495;51.210;2.934;2023-06-10T05:14:52;20.60;99.90
18733;DHT22;9495;51.210;2.934;2023-06-10T05:17:20;20.60;99.90
18733;DHT22;9495;51.210;2.934;2023-06-10T05:19:50;20.60;99.90
18733;DHT22;9495;51.210;2.934;2023-06-10T05:22:18;20.70;99.90
18733;DHT22;9495;51.210;2.934;2023-06-10T05:24:48;20.70;99.90
18733;DHT22;9495;51.210;2.934;2023-06-10T05:27:16;20.80;99.90
18733;DHT22;9495;51.210;2.934;2023-06-10T05:29:45;20.80;99.90
18733;DHT22;9495;51.210;2.934;2023-06-10T05:32:14;21.00;99.90
18733;DHT22;9495;51.210;2.934;2023-06-10T05:34:42;20.90;99.90
18733;DHT22;9495;51.210;2.934;2023-06-10T05:37:12;21.10;99.90
18733;DHT22;9495;51.210;2.934;2023-06-10T05:39:40;21.10;99.90
18733;DHT22;9495;51.210;2.934;2023-06-10T05:42:10;21.20;99.90
18733;DHT22;9495;51.210;2.934;2023-06-10T05:44:38;21.10;99.90
18733;DHT22;9495;51.210;2.934;2023-06-10T05:47:07;21.20;99.90
18733;DHT22;9495;51.210;2.934;2023-06-10T05:49:36;21.20;99.90
18733;DHT22;9495;51.210;2.934;2023-06-10T05:52:05;21.20;99.90
18733;DHT22;9495;51.210;2.934;2023-06-10T05:54:33;21.30;99.90
18733;DHT22;9495;51.210;2.934;2023-06-10T05:57:02;21.30;99.90
18733;DHT22;9495;51.210;2.934;2023-06-10T05:59:34;21.30;99.90
18733;DHT22;9495;51.210;2.934;2023-06-10T06:02:02;21.40;99.90
18733;DHT22;9495;51.210;2.934;2023-06-10T06:04:31;21.80;99.90
18733;DHT22;9495;51.210;2.934;2023-06-10T06:06:59;22.00;99.90
18733;DHT22;9495;51.210;2.934;2023-06-10T06:09:28;22.20;99.90
18733;DHT22;9495;51.210;2.934;2023-06-10T06:11:56;22.30;99.90
18733;DHT22;9495;51.210;2.934;2023-06-10T06:14:25;22.40;99.90
18733;DHT22;9495;51.210;2.934;2023-06-10T06:16:55;22.50;99.90
18733;DHT22;9495;51.210;2.934;2023-06-10T06:19:23;22.50;99.90
18733;DHT22;9495;51.210;2.934;2023-06-10T06:21:52;22.60;99.90
18733;DHT22;9495;51.210;2.934;2023-06-10T06:24:20;22.60;99.90
18733;DHT22;9495;51.210;2.934;2023-06-10T06:26:49;22.60;99.90
18733;DHT22;9495;51.210;2.934;2023-06-10T06:29:17;22.70;99.90
18733;DHT22;9495;51.210;2.934;2023-06-10T06:31:46;22.70;99.90
18733;DHT22;9495;51.210;2.934;2023-06-10T06:34:16;22.70;99.90
18733;DHT22;9495;51.210;2.934;2023-06-10T06:36:45;22.70;99.90
18733;DHT22;9495;51.210;2.934;2023-06-10T06:39:13;22.80;99.90
18733;DHT22;9495;51.210;2.934;2023-06-10T06:41:42;22.80;99.90
18733;DHT22;9495;51.210;2.934;2023-06-10T06:44:10;22.80;99.90
18733;DHT22;9495;51.210;2.934;2023-06-10T06:46:39;22.80;99.90
18733;DHT22;9495;51.210;2.934;2023-06-10T06:49:07;22.90;99.90
18733;DHT22;9495;51.210;2.934;2023-06-10T06:51:37;22.90;99.90
18733;DHT22;9495;51.210;2.934;2023-06-10T06:54:05;22.90;99.90
18733;DHT22;9495;51.210;2.934;2023-06-10T06:56:34;22.90;99.90
18733;DHT22;9495;51.210;2.934;2023-06-10T06:59:02;22.90;99.90
18733;DHT22;9495;51.210;2.934;2023-06-10T07:01:33;22.90;99.90
18733;DHT22;9495;51.210;2.934;2023-06-10T07:04:02;22.90;99.90
18733;DHT22;9495;51.210;2.934;2023-06-10T07:06:31;22.90;99.90
18733;DHT22;9495;51.210;2.934;2023-06-10T07:09:04;22.90;99.90
18733;DHT22;9495;51.210;2.934;2023-06-10T07:11:33;22.90;99.90
18733;DHT22;9495;51.210;2.934;2023-06-10T07:14:02;22.90;99.90
18733;DHT22;9495;51.210;2.934;2023-06-10T07:16:31;23.00;99.90
18733;DHT22;9495;51.210;2.934;2023-06-10T07:18:59;23.00;99.90
18733;DHT22;9495;51.210;2.934;2023-06-10T07:21:32;23.00;99.90
18733;DHT22;9495;51.210;2.934;2023-06-10T07:24:01;23.10;99.90
18733;DHT22;9495;51.210;2.934;2023-06-10T07:26:30;23.10;99.90
18733;DHT22;9495;51.210;2.934;2023-06-10T07:28:59;23.10;99.90
18733;DHT22;9495;51.210;2.934;2023-06-10T07:31:28;23.10;99.90
18733;DHT22;9495;51.210;2.934;2023-06-10T07:33:57;23.20;99.90
18733;DHT22;9495;51.210;2.934;2023-06-10T07:36:26;23.20;99.90
18733;DHT22;9495;51.210;2.934;2023-06-10T07:38:56;23.20;99.90
18733;DHT22;9495;51.210;2.934;2023-06-10T07:41:25;23.20;99.90
18733;DHT22;9495;51.210;2.934;2023-06-10T07:43:55;23.20;99.90
18733;DHT22;9495;51.210;2.934;2023-06-10T07:46:23;23.20;99.90
18733;DHT22;9495;51.210;2.934;2023-06-10T07:48:54;23.30;99.90
18733;DHT22;9495;51.210;2.934;2023-06-10T07:51:23;23.30;99.90
18733;DHT22;9495;51.210;2.934;2023-06-10T07:53:52;23.30;99.90
18733;DHT22;9495;51.210;2.934;2023-06-10T07:56:20;23.30;99.90
18733;DHT22;9495;51.210;2.934;2023-06-10T07:58:49;23.30;99.90
18733;DHT22;9495;51.210;2.934;2023-06-10T08:01:22;23.30;99.90
18733;DHT22;9495;51.210;2.934;2023-06-10T08:03:51;23.40;99.90
18733;DHT22;9495;51.210;2.934;2023-06-10T08:06:20;23.40;99.90
18733;DHT22;9495;51.210;2.934;2023-06-10T08:08:49;23.40;99.90
18733;DHT22;9495;51.210;2.934;2023-06-10T08:11:17;23.40;99.90
18733;DHT22;9495;51.210;2.934;2023-06-10T08:13:46;23.40;99.90
18733;DHT22;9495;51.210;2.934;2023-06-10T08:16:14;23.40;99.90
18733;DHT22;9495;51.210;2.934;2023-06-10T08:18:44;23.40;99.90
18733;DHT22;9495;51.210;2.934;2023-06-10T08:21:13;23.50;99.90
18733;DHT22;9495;51.210;2.934;2023-06-10T08:23:42;23.50;99.90
18733;DHT22;9495;51.210;2.934;2023-06-10T08:26:11;23.60;99.90
18733;DHT22;9495;51.210;2.934;2023-06-10T08:28:40;23.50;99.90
18733;DHT22;9495;51.210;2.934;2023-06-10T08:31:08;23.60;99.90
18733;DHT22;9495;51.210;2.934;2023-06-10T08:33:37;23.60;99.90
18733;DHT22;9495;51.210;2.934;2023-06-10T08:36:06;23.80;99.90
18733;DHT22;9495;51.210;2.934;2023-06-10T08:38:35;23.70;99.90
18733;DHT22;9495;51.210;2.934;2023-06-10T08:41:05;23.90;99.90
18733;DHT22;9495;51.210;2.934;2023-06-10T08:43:39;23.80;99.90
18733;DHT22;9495;51.210;2.934;2023-06-10T08:46:09;23.80;99.90
18733;DHT22;9495;51.210;2.934;2023-06-10T08:48:42;23.80;99.90
18733;DHT22;9495;51.210;2.934;2023-06-10T08:51:12;23.80;99.90
18733;DHT22;9495;51.210;2.934;2023-06-10T08:53:50;23.80;99.90
18733;DHT22;9495;51.210;2.934;2023-06-10T08:56:23;23.90;99.90
18733;DHT22;9495;51.210;2.934;2023-06-10T08:58:53;23.90;99.90
18733;DHT22;9495;51.210;2.934;2023-06-10T09:01:24;23.90;99.90
18733;DHT22;9495;51.210;2.934;2023-06-10T09:03:53;23.90;99.90
18733;DHT22;9495;51.210;2.934;2023-06-10T09:06:24;23.90;99.90
18733;DHT22;9495;51.210;2.934;2023-06-10T09:08:53;24.00;99.90
18733;DHT22;9495;51.210;2.934;2023-06-10T09:11:22;24.00;99.90
18733;DHT22;9495;51.210;2.934;2023-06-10T09:13:50;24.00;99.90
18733;DHT22;9495;51.210;2.934;2023-06-10T09:16:19;23.90;99.90
18733;DHT22;9495;51.210;2.934;2023-06-10T09:18:48;23.90;99.90
18733;DHT22;9495;51.210;2.934;2023-06-10T09:21:23;24.00;99.90
18733;DHT22;9495;51.210;2.934;2023-06-10T09:23:52;23.90;99.90
18733;DHT22;9495;51.210;2.934;2023-06-10T09:26:20;23.90;99.90
18733;DHT22;9495;51.210;2.934;2023-06-10T09:29:02;24.00;99.90
18733;DHT22;9495;51.210;2.934;2023-06-10T09:31:32;24.00;99.90
18733;DHT22;9495;51.210;2.934;2023-06-10T09:34:07;24.00;99.90
18733;DHT22;9495;51.210;2.934;2023-06-10T09:36:38;24.00;99.90
18733;DHT22;9495;51.210;2.934;2023-06-10T09:39:14;24.10;99.90
18733;DHT22;9495;51.210;2.934;2023-06-10T09:41:44;24.10;99.90
18733;DHT22;9495;51.210;2.934;2023-06-10T09:44:14;24.10;99.90
18733;DHT22;9495;51.210;2.934;2023-06-10T09:46:45;24.10;99.90
18733;DHT22;9495;51.210;2.934;2023-06-10T09:49:15;24.10;99.90
18733;DHT22;9495;51.210;2.934;2023-06-10T09:51:52;24.10;99.90
18733;DHT22;9495;51.210;2.934;2023-06-10T09:54:21;24.20;99.90
18733;DHT22;9495;51.210;2.934;2023-06-10T09:56:51;24.20;99.90
18733;DHT22;9495;51.210;2.934;2023-06-10T09:59:29;24.10;99.90
18733;DHT22;9495;51.210;2.934;2023-06-10T10:01:59;24.30;99.90
18733;DHT22;9495;51.210;2.934;2023-06-10T10:04:28;24.30;99.90
18733;DHT22;9495;51.210;2.934;2023-06-10T10:06:58;24.30;99.90
18733;DHT22;9495;51.210;2.934;2023-06-10T10:09:27;24.30;99.90
18733;DHT22;9495;51.210;2.934;2023-06-10T10:11:56;24.30;99.90
18733;DHT22;9495;51.210;2.934;2023-06-10T10:14:25;24.20;99.90
18733;DHT22;9495;51.210;2.934;2023-06-10T10:16:54;24.30;99.90
18733;DHT22;9495;51.210;2.934;2023-06-10T10:19:28;24.20;99.90
18733;DHT22;9495;51.210;2.934;2023-06-10T10:22:02;24.30;99.90
18733;DHT22;9495;51.210;2.934;2023-06-10T10:24:34;24.30;99.90
18733;DHT22;9495;51.210;2.934;2023-06-10T10:27:11;24.30;99.90
18733;DHT22;9495;51.210;2.934;2023-06-10T10:29:42;24.30;99.90
18733;DHT22;9495;51.210;2.934;2023-06-10T10:32:14;24.40;99.90
18733;DHT22;9495;51.210;2.934;2023-06-10T10:34:50;24.40;99.90
18733;DHT22;9495;51.210;2.934;2023-06-10T10:37:21;24.60;99.90
18733;DHT22;9495;51.210;2.934;2023-06-10T10:39:49;24.60;99.90
18733;DHT22;9495;51.210;2.934;2023-06-10T10:42:19;24.60;99.90
18733;DHT22;9495;51.210;2.934;2023-06-10T10:44:47;24.60;99.90
18733;DHT22;9495;51.210;2.934;2023-06-10T10:47:20;24.60;99.90
18733;DHT22;9495;51.210;2.934;2023-06-10T10:49:51;24.60;99.90
18733;DHT22;9495;51.210;2.934;2023-06-10T10:52:22;24.60;99.90
18733;DHT22;9495;51.210;2.934;2023-06-10T10:54:53;24.60;99.90
18733;DHT22;9495;51.210;2.934;2023-06-10T10:57:22;24.50;99.90
18733;DHT22;9495;51.210;2.934;2023-06-10T10:59:53;24.60;99.90
18733;DHT22;9495;51.210;2.934;2023-06-10T11:02:39;24.60;99.90
18733;DHT22;9495;51.210;2.934;2023-06-10T11:05:12;24.60;99.90
18733;DHT22;9495;51.210;2.934;2023-06-10T11:07:52;24.70;99.90
18733;DHT22;9495;51.210;2.934;2023-06-10T11:10:29;24.60;99.90
18733;DHT22;9495;51.210;2.934;2023-06-10T11:12:58;24.70;99.90
18733;DHT22;9495;51.210;2.934;2023-06-10T11:15:28;24.70;99.90
18733;DHT22;9495;51.210;2.934;2023-06-10T11:18:26;24.70;99.90
18733;DHT22;9495;51.210;2.934;2023-06-10T11:20:59;24.70;99.90
18733;DHT22;9495;51.210;2.934;2023-06-10T11:23:40;24.70;99.90
18733;DHT22;9495;51.210;2.934;2023-06-10T11:26:19;24.80;99.90
18733;DHT22;9495;51.210;2.934;2023-06-10T11:29:08;24.80;99.90
18733;DHT22;9495;51.210;2.934;2023-06-10T11:31:42;24.80;99.90
18733;DHT22;9495;51.210;2.934;2023-06-10T11:34:11;24.80;99.90
18733;DHT22;9495;51.210;2.934;2023-06-10T11:36:41;24.80;99.90
18733;DHT22;9495;51.210;2.934;2023-06-10T11:39:14;24.80;99.90
18733;DHT22;9495;51.210;2.934;2023-06-10T11:41:43;24.90;99.90
18733;DHT22;9495;51.210;2.934;2023-06-10T11:44:12;24.80;99.90
18733;DHT22;9495;51.210;2.934;2023-06-10T11:46:48;24.80;99.90
18733;DHT22;9495;51.210;2.934;2023-06-10T11:49:17;24.80;99.90
18733;DHT22;9495;51.210;2.934;2023-06-10T11:51:46;24.80;99.90
18733;DHT22;9495;51.210;2.934;2023-06-10T11:54:20;24.90;99.90
18733;DHT22;9495;51.210;2.934;2023-06-10T11:56:49;24.90;99.90
18733;DHT22;9495;51.210;2.934;2023-06-10T11:59:17;25.00;99.90
18733;DHT22;9495;51.210;2.934;2023-06-10T12:01:46;25.00;99.90
18733;DHT22;9495;51.210;2.934;2023-06-10T12:04:15;25.20;99.90
18733;DHT22;9495;51.210;2.934;2023-06-10T12:06:46;25.10;99.90
18733;DHT22;9495;51.210;2.934;2023-06-10T12:09:21;25.10;99.90
18733;DHT22;9495;51.210;2.934;2023-06-10T12:11:56;24.90;99.90
18733;DHT22;9495;51.210;2.934;2023-06-10T12:14:52;25.10;99.90
18733;DHT22;9495;51.210;2.934;2023-06-10T12:17:23;25.40;99.90
18733;DHT22;9495;51.210;2.934;2023-06-10T12:19:52;25.20;99.90
18733;DHT22;9495;51.210;2.934;2023-06-10T12:22:20;25.40;99.90
18733;DHT22;9495;51.210;2.934;2023-06-10T12:25:02;25.40;99.90
18733;DHT22;9495;51.210;2.934;2023-06-10T12:27:31;25.30;99.90
18733;DHT22;9495;51.210;2.934;2023-06-10T12:30:01;25.20;99.90
18733;DHT22;9495;51.210;2.934;2023-06-10T12:32:35;25.20;99.90
18733;DHT22;9495;51.210;2.934;2023-06-10T12:35:05;25.20;99.90
18733;DHT22;9495;51.210;2.934;2023-06-10T12:37:34;25.20;99.90
18733;DHT22;9495;51.210;2.934;2023-06-10T12:40:11;25.00;99.90
18733;DHT22;9495;51.210;2.934;2023-06-10T12:42:39;25.20;99.90
18733;DHT22;9495;51.210;2.934;2023-06-10T12:45:09;25.10;99.90
18733;DHT22;9495;51.210;2.934;2023-06-10T12:47:40;25.30;99.90
18733;DHT22;9495;51.210;2.934;2023-06-10T12:50:10;25.20;99.90
18733;DHT22;9495;51.210;2.934;2023-06-10T12:52:40;25.30;99.90
18733;DHT22;9495;51.210;2.934;2023-06-10T12:55:10;25.30;99.90
18733;DHT22;9495;51.210;2.934;2023-06-10T12:57:48;25.10;99.90
18733;DHT22;9495;51.210;2.934;2023-06-10T13:00:18;25.00;99.90
18733;DHT22;9495;51.210;2.934;2023-06-10T13:02:47;25.30;99.90
18733;DHT22;9495;51.210;2.934;2023-06-10T13:05:17;25.20;99.90
18733;DHT22;9495;51.210;2.934;2023-06-10T13:07:47;25.30;99.90
18733;DHT22;9495;51.210;2.934;2023-06-10T13:10:17;25.50;99.90
18733;DHT22;9495;51.210;2.934;2023-06-10T13:12:51;25.30;99.90
18733;DHT22;9495;51.210;2.934;2023-06-10T13:15:19;25.40;99.90
18733;DHT22;9495;51.210;2.934;2023-06-10T13:17:48;25.40;99.90
18733;DHT22;9495;51.210;2.934;2023-06-10T13:20:19;25.40;99.90
18733;DHT22;9495;51.210;2.934;2023-06-10T13:22:48;25.30;99.90
18733;DHT22;9495;51.210;2.934;2023-06-10T13:25:17;25.20;99.90
18733;DHT22;9495;51.210;2.934;2023-06-10T13:27:46;25.20;99.90
18733;DHT22;9495;51.210;2.934;2023-06-10T13:30:15;25.30;99.90
18733;DHT22;9495;51.210;2.934;2023-06-10T13:32:43;25.30;99.90
18733;DHT22;9495;51.210;2.934;2023-06-10T13:35:12;25.20;99.90
18733;DHT22;9495;51.210;2.934;2023-06-10T13:37:40;25.20;99.90
18733;DHT22;9495;51.210;2.934;2023-06-10T13:40:10;25.20;99.90
18733;DHT22;9495;51.210;2.934;2023-06-10T13:42:40;25.20;99.90
18733;DHT22;9495;51.210;2.934;2023-06-10T13:45:09;25.20;99.90
18733;DHT22;9495;51.210;2.934;2023-06-10T13:47:38;25.20;99.90
18733;DHT22;9495;51.210;2.934;2023-06-10T13:50:07;25.20;99.90
18733;DHT22;9495;51.210;2.934;2023-06-10T13:52:36;25.10;99.90
18733;DHT22;9495;51.210;2.934;2023-06-10T13:55:05;25.10;99.90
18733;DHT22;9495;51.210;2.934;2023-06-10T13:57:34;25.30;99.90
18733;DHT22;9495;51.210;2.934;2023-06-10T14:00:05;25.40;99.90
18733;DHT22;9495;51.210;2.934;2023-06-10T14:02:34;25.40;99.90
18733;DHT22;9495;51.210;2.934;2023-06-10T14:05:03;25.60;99.90
18733;DHT22;9495;51.210;2.934;2023-06-10T14:07:32;25.50;99.90
18733;DHT22;9495;51.210;2.934;2023-06-10T14:10:01;25.40;99.90
18733;DHT22;9495;51.210;2.934;2023-06-10T14:12:30;25.40;99.90
18733;DHT22;9495;51.210;2.934;2023-06-10T14:14:59;25.40;99.90
18733;DHT22;9495;51.210;2.934;2023-06-10T14:17:29;25.50;99.90
18733;DHT22;9495;51.210;2.934;2023-06-10T14:19:57;25.60;99.90
18733;DHT22;9495;51.210;2.934;2023-06-10T14:22:26;25.50;99.90
18733;DHT22;9495;51.210;2.934;2023-06-10T14:24:54;25.40;99.90
18733;DHT22;9495;51.210;2.934;2023-06-10T14:27:23;25.30;99.90
18733;DHT22;9495;51.210;2.934;2023-06-10T14:29:52;25.30;99.90
18733;DHT22;9495;51.210;2.934;2023-06-10T14:32:21;25.40;99.90
18733;DHT22;9495;51.210;2.934;2023-06-10T14:34:51;25.40;99.90
18733;DHT22;9495;51.210;2.934;2023-06-10T14:37:19;25.50;99.90
18733;DHT22;9495;51.210;2.934;2023-06-10T14:39:48;25.40;99.90
18733;DHT22;9495;51.210;2.934;2023-06-10T14:42:16;25.30;99.90
18733;DHT22;9495;51.210;2.934;2023-06-10T14:44:45;25.60;99.90
18733;DHT22;9495;51.210;2.934;2023-06-10T14:47:13;25.40;99.90
18733;DHT22;9495;51.210;2.934;2023-06-10T14:49:42;25.40;99.90
18733;DHT22;9495;51.210;2.934;2023-06-10T14:52:12;25.60;99.90
18733;DHT22;9495;51.210;2.934;2023-06-10T14:54:41;26.50;99.90
18733;DHT22;9495;51.210;2.934;2023-06-10T14:57:09;26.60;99.90
18733;DHT22;9495;51.210;2.934;2023-06-10T14:59:37;26.50;99.90
18733;DHT22;9495;51.210;2.934;2023-06-10T15:02:07;26.20;99.90
18733;DHT22;9495;51.210;2.934;2023-06-10T15:04:35;26.90;99.90
18733;DHT22;9495;51.210;2.934;2023-06-10T15:07:04;26.90;99.90
18733;DHT22;9495;51.210;2.934;2023-06-10T15:09:33;26.50;99.90
18733;DHT22;9495;51.210;2.934;2023-06-10T15:12:02;26.30;99.90
18733;DHT22;9495;51.210;2.934;2023-06-10T15:14:32;26.50;99.90
18733;DHT22;9495;51.210;2.934;2023-06-10T15:17:01;26.70;99.90
18733;DHT22;9495;51.210;2.934;2023-06-10T15:19:29;26.40;99.90
18733;DHT22;9495;51.210;2.934;2023-06-10T15:21:58;26.20;99.90
18733;DHT22;9495;51.210;2.934;2023-06-10T15:24:26;26.60;99.90
18733;DHT22;9495;51.210;2.934;2023-06-10T15:26:56;26.50;99.90
18733;DHT22;9495;51.210;2.934;2023-06-10T15:29:25;26.90;99.90
18733;DHT22;9495;51.210;2.934;2023-06-10T15:31:53;27.00;99.90
18733;DHT22;9495;51.210;2.934;2023-06-10T15:34:22;26.90;99.90
18733;DHT22;9495;51.210;2.934;2023-06-10T15:36:50;27.20;99.90
18733;DHT22;9495;51.210;2.934;2023-06-10T15:39:19;26.70;99.90
18733;DHT22;9495;51.210;2.934;2023-06-10T15:41:48;26.50;99.90
18733;DHT22;9495;51.210;2.934;2023-06-10T15:44:18;26.20;99.90
18733;DHT22;9495;51.210;2.934;2023-06-10T15:46:46;26.40;99.90
18733;DHT22;9495;51.210;2.934;2023-06-10T15:49:15;26.50;99.90
18733;DHT22;9495;51.210;2.934;2023-06-10T15:51:43;26.70;99.90
18733;DHT22;9495;51.210;2.934;2023-06-10T15:54:17;26.50;99.90
18733;DHT22;9495;51.210;2.934;2023-06-10T15:56:45;26.70;99.90
18733;DHT22;9495;51.210;2.934;2023-06-10T15:59:14;26.80;99.90
18733;DHT22;9495;51.210;2.934;2023-06-10T16:01:44;26.70;99.90